Terminal Aerodrome Forecast
Issued by NWS Chicago, IL

Home | Current Version | Previous Version | Text Only | Print | Product List | Glossary On
Versions: 1 2 3 4 5 6 7 8 9 10 11 12 13 14 15 16 17 18 19 20 21 22 23 24 25 26 27 28 29
000
FTUS43 KLOT 211504 AAC
TAFRFD
TAF AMD
KRFD 211504Z 2115/2212 17007KT P6SM SCT080 BKN100
     FM211630 17008KT P6SM VCSH SCT035 BKN200
     FM212000 17006KT P6SM SCT050 BKN150
     FM220200 18006KT P6SM BKN100 PROB30 2202/2205 5SM -TSRA
      BKN040CB
     FM220500 16006KT P6SM VCTS BKN050 BKN100CB
      TEMPO 2205/2208 3SM TSRA BKN035CB=

USA.gov is the U.S. government's official web portal to all federal, state and local government web resources and services.